Terminal Aerodrome Forecast
Issued by NWS

Home | Current Version | Previous Version | Text Only | Print | Product List | Glossary On
Versions: 1 2 3 4 5 6 7 8 9 10 11 12 13 14 15 16 17
000
FTUS41 KPHI 311700
TAFMIV
TAF
KMIV 311737Z 3118/0118 01008KT P6SM OVC035
     FM010500 03008KT P6SM -RA OVC025
     FM011000 03010G20KT 5SM -RA OVC012
      TEMPO 0111/0115 3SM RA BR OVC007=

USA.gov is the U.S. government's official web portal to all federal, state and local government web resources and services.